Time;durP1;ratioP1;P1;durP2;ratioP2;P2;SDS_P1;SDS_P2;PMS_P1;PMS_P2;Temp;Humidity;BMP_temperature;BMP_pressure;BME280_temperature;BME280_humidity;BME280_pressure;Samples;Min_cycle;Max_cycle;Signal;HPM_P1;HPM_P2
2022/04/30 00:02:13;;;;;;;15.10;12.37;;;15.00;63.40;;;;;;4985296;28;20492;-43
2022/04/30 00:04:43;;;;;;;18.13;12.50;;;15.00;63.80;;;;;;4981388;28;20460;-44
2022/04/30 00:07:29;;;;;;;17.77;12.67;;;14.90;63.80;;;;;;4984626;28;20850;-44
2022/04/30 00:09:55;;;;;;;15.80;11.07;;;14.90;63.80;;;;;;4979925;28;20480;-44
2022/04/30 00:12:23;;;;;;;20.33;12.37;;;14.90;64.10;;;;;;4982150;28;20504;-44
2022/04/30 00:14:50;;;;;;;19.07;13.20;;;14.80;64.10;;;;;;4982602;28;20572;-44
2022/04/30 00:17:17;;;;;;;20.03;11.90;;;14.80;64.40;;;;;;4982340;28;20555;-44
2022/04/30 00:19:44;;;;;;;16.13;11.77;;;14.70;64.90;;;;;;4981577;28;20456;-44
2022/04/30 00:22:10;;;;;;;19.40;14.57;;;14.80;65.40;;;;;;4984280;28;20468;-44
2022/04/30 00:24:38;;;;;;;17.07;11.37;;;14.80;66.60;;;;;;4980328;28;20471;-44
2022/04/30 00:27:05;;;;;;;17.80;13.13;;;14.80;67.00;;;;;;4988416;28;20878;-44
2022/04/30 00:29:32;;;;;;;19.27;11.97;;;14.70;67.90;;;;;;4977152;28;20464;-44
2022/04/30 00:32:02;;;;;;;18.03;14.23;;;14.70;68.70;;;;;;4983657;28;20534;-44
2022/04/30 00:34:30;;;;;;;18.80;14.47;;;14.60;69.30;;;;;;4979934;28;20558;-44
2022/04/30 00:37:02;;;;;;;22.97;14.80;;;14.60;70.60;;;;;;4986449;28;20478;-43
2022/04/30 00:39:32;;;;;;;19.63;14.13;;;14.50;71.80;;;;;;4970749;28;20467;-43
2022/04/30 00:41:59;;;;;;;22.33;14.37;;;14.50;72.50;;;;;;4983742;28;20472;-43
2022/04/30 00:44:27;;;;;;;21.23;14.57;;;14.40;73.40;;;;;;4986921;28;20869;-43
2022/04/30 00:46:54;;;;;;;21.70;15.07;;;14.30;74.40;;;;;;4983988;28;20472;-43
2022/04/30 00:49:21;;;;;;;17.70;14.00;;;14.30;75.50;;;;;;4986609;28;20472;-43
2022/04/30 00:51:49;;;;;;;26.93;15.90;;;14.30;75.70;;;;;;4984875;28;20579;-43
2022/04/30 00:54:20;;;;;;;22.30;15.40;;;14.20;75.90;;;;;;4988189;28;20983;-43
2022/04/30 00:56:58;;;;;;;21.80;15.67;;;14.20;76.20;;;;;;4985592;28;20467;-44
2022/04/30 00:59:26;;;;;;;20.83;15.77;;;14.10;76.60;;;;;;4984162;28;20479;-43
2022/04/30 01:01:53;;;;;;;23.27;14.67;;;14.00;77.30;;;;;;4985623;28;20477;-43
2022/04/30 01:04:20;;;;;;;26.47;15.53;;;14.00;77.30;;;;;;4988644;28;20474;-44
2022/04/30 01:06:56;;;;;;;21.47;15.03;;;13.90;77.90;;;;;;4965240;28;20535;-43
2022/04/30 01:09:28;;;;;;;22.83;17.87;;;13.90;78.40;;;;;;4981781;28;20492;-43
2022/04/30 01:12:10;;;;;;;21.67;15.40;;;13.90;78.40;;;;;;4983857;28;20488;-43
2022/04/30 01:14:39;;;;;;;27.17;17.50;;;13.80;78.80;;;;;;4983612;28;20456;-43
2022/04/30 01:17:10;;;;;;;23.57;15.40;;;13.80;78.80;;;;;;4985167;28;20483;-44
2022/04/30 01:19:39;;;;;;;22.87;15.50;;;13.80;79.40;;;;;;4985387;28;20525;-44
2022/04/30 01:22:26;;;;;;;21.73;15.17;;;13.80;79.40;;;;;;4983766;28;20552;-43
2022/04/30 01:24:57;;;;;;;23.97;15.40;;;13.80;79.30;;;;;;4988702;28;20468;-43
2022/04/30 01:27:28;;;;;;;22.80;14.73;;;13.80;79.20;;;;;;4982496;28;20510;-44
2022/04/30 01:30:01;;;;;;;22.83;15.90;;;13.70;79.90;;;;;;4989584;28;20911;-43
2022/04/30 01:38:02;;;;;;;23.40;15.57;;;13.70;79.60;;;;;;4991090;28;20901;-44
2022/04/30 01:40:30;;;;;;;25.10;16.10;;;13.70;79.30;;;;;;4987784;28;20531;-44
2022/04/30 01:43:00;;;;;;;23.07;15.63;;;13.60;79.60;;;;;;4991434;28;20826;-44
2022/04/30 01:45:28;;;;;;;20.83;14.30;;;13.60;79.50;;;;;;4989773;28;20472;-44
2022/04/30 01:47:58;;;;;;;22.70;14.13;;;13.60;79.60;;;;;;4987545;28;20463;-43
2022/04/30 01:50:25;;;;;;;23.03;15.23;;;13.50;79.60;;;;;;4968893;28;20538;-43
2022/04/30 01:52:52;;;;;;;20.80;15.33;;;13.50;79.40;;;;;;4970782;28;20503;-44
2022/04/30 01:55:19;;;;;;;22.07;14.17;;;13.50;79.70;;;;;;4976468;28;21048;-43
2022/04/30 01:57:45;;;;;;;18.53;14.27;;;13.40;79.90;;;;;;4990472;28;20468;-44
2022/04/30 02:00:14;;;;;;;21.10;15.23;;;13.40;79.70;;;;;;4988069;28;20460;-44
2022/04/30 02:02:44;;;;;;;18.47;12.63;;;13.40;79.20;;;;;;4987831;28;20464;-44
2022/04/30 02:05:13;;;;;;;19.90;13.97;;;13.30;79.20;;;;;;4992998;28;20566;-44
2022/04/30 02:07:54;;;;;;;20.13;13.40;;;13.30;79.20;;;;;;4987253;28;20544;-44
2022/04/30 02:10:22;;;;;;;25.50;13.37;;;13.20;79.50;;;;;;4987624;28;20460;-44
2022/04/30 02:12:50;;;;;;;22.00;13.20;;;13.20;79.80;;;;;;4989375;28;20496;-44
2022/04/30 02:15:19;;;;;;;19.33;13.90;;;13.20;79.90;;;;;;4973453;28;20460;-44
2022/04/30 02:17:47;;;;;;;19.30;13.23;;;13.20;79.60;;;;;;4988205;28;20460;-44
2022/04/30 02:20:18;;;;;;;24.30;14.10;;;13.20;79.70;;;;;;4986354;28;20550;-43
2022/04/30 02:22:46;;;;;;;17.00;12.80;;;13.10;79.90;;;;;;4982569;28;20460;-43
2022/04/30 02:25:15;;;;;;;21.17;11.30;;;13.10;79.30;;;;;;4983635;28;20466;-42
2022/04/30 02:27:44;;;;;;;20.10;15.37;;;13.00;79.40;;;;;;4983078;28;20468;-42
2022/04/30 02:30:14;;;;;;;17.67;12.77;;;13.00;79.70;;;;;;4985144;28;20567;-42
2022/04/30 02:32:45;;;;;;;18.93;12.70;;;13.00;80.20;;;;;;4983126;28;20492;-43
2022/04/30 02:35:19;;;;;;;16.97;12.50;;;13.00;80.70;;;;;;4983096;28;20467;-43
2022/04/30 02:37:49;;;;;;;18.23;12.63;;;13.00;80.60;;;;;;4982639;28;20464;-42
2022/04/30 02:40:17;;;;;;;19.30;14.00;;;13.00;80.80;;;;;;4983729;28;20935;-42
2022/04/30 02:42:44;;;;;;;21.27;14.30;;;13.00;80.70;;;;;;4984196;28;20457;-43
2022/04/30 02:45:12;;;;;;;15.67;12.20;;;12.90;80.80;;;;;;4984558;28;20468;-42
2022/04/30 02:47:41;;;;;;;19.10;13.00;;;12.90;80.70;;;;;;4979535;28;20492;-42
2022/04/30 02:50:10;;;;;;;22.90;14.13;;;12.90;81.50;;;;;;4980429;28;20475;-43
2022/04/30 02:52:37;;;;;;;20.53;13.93;;;12.90;81.60;;;;;;4982914;28;20502;-43
2022/04/30 02:55:05;;;;;;;21.83;14.73;;;12.90;81.90;;;;;;4982595;28;20536;-43
2022/04/30 03:00:40;;;;;;;21.07;15.80;;;12.90;82.20;;;;;;4981134;28;20471;-42
2022/04/30 03:03:08;;;;;;;23.17;15.33;;;12.90;82.20;;;;;;4984552;28;20471;-43
2022/04/30 03:05:36;;;;;;;21.23;15.93;;;12.90;82.20;;;;;;4982010;28;20456;-42
2022/04/30 03:08:11;;;;;;;21.93;14.70;;;12.90;82.40;;;;;;4982973;28;20476;-43
2022/04/30 03:10:38;;;;;;;23.73;15.33;;;12.90;82.30;;;;;;4983152;28;20474;-42
2022/04/30 03:13:06;;;;;;;20.70;15.10;;;12.90;82.60;;;;;;4982675;28;20493;-42
2022/04/30 03:15:34;;;;;;;20.07;15.40;;;13.00;82.10;;;;;;4982579;28;20475;-43
2022/04/30 03:23:35;;;;;;;19.00;14.23;;;12.90;82.20;;;;;;4981541;28;21248;-44
2022/04/30 03:26:04;;;;;;;20.33;14.30;;;12.90;82.40;;;;;;4980335;28;20480;-43
2022/04/30 03:28:32;;;;;;;22.50;14.20;;;13.00;82.30;;;;;;4984082;28;20467;-42
2022/04/30 03:30:59;;;;;;;16.60;14.50;;;13.00;82.20;;;;;;4981104;28;20575;-43
2022/04/30 03:33:26;;;;;;;18.27;13.03;;;13.00;81.70;;;;;;4962107;28;20495;-43
2022/04/30 03:35:54;;;;;;;20.73;13.47;;;12.90;81.80;;;;;;4981761;28;20837;-43
2022/04/30 03:38:21;;;;;;;20.03;14.00;;;12.90;82.20;;;;;;4980768;28;20457;-43
2022/04/30 03:40:48;;;;;;;20.30;14.30;;;12.90;82.20;;;;;;4982018;28;20468;-43
2022/04/30 03:43:15;;;;;;;17.87;14.00;;;12.80;82.10;;;;;;4984421;28;20467;-43
2022/04/30 03:45:42;;;;;;;19.67;14.13;;;12.80;82.40;;;;;;4979992;28;20460;-43
2022/04/30 03:48:09;;;;;;;18.27;15.43;;;12.80;82.30;;;;;;4981000;28;20519;-42
2022/04/30 03:50:36;;;;;;;17.27;13.63;;;12.80;82.10;;;;;;4983102;28;20883;-43
2022/04/30 03:53:03;;;;;;;18.97;14.50;;;12.80;82.00;;;;;;4983467;28;20496;-42
2022/04/30 03:55:30;;;;;;;17.90;13.90;;;12.70;82.40;;;;;;4980776;28;20635;-43
2022/04/30 03:57:57;;;;;;;20.63;13.80;;;12.70;82.70;;;;;;4982593;28;20487;-43
2022/04/30 04:00:24;;;;;;;25.23;13.83;;;12.70;82.80;;;;;;4980901;28;20464;-43
2022/04/30 04:02:53;;;;;;;21.90;15.37;;;12.70;82.80;;;;;;4979741;28;20851;-43
2022/04/30 04:05:20;;;;;;;18.50;13.90;;;12.70;82.60;;;;;;4981494;28;20484;-43
2022/04/30 04:07:47;;;;;;;21.27;15.80;;;12.70;82.90;;;;;;4963774;28;20475;-43
2022/04/30 04:10:14;;;;;;;19.63;14.07;;;12.70;82.80;;;;;;4980907;28;20468;-43
2022/04/30 04:12:40;;;;;;;21.00;14.73;;;12.70;83.00;;;;;;4980892;28;20484;-42
2022/04/30 04:17:55;;;;;;;21.20;14.33;;;12.70;83.20;;;;;;4982681;28;20456;-44
2022/04/30 04:20:25;;;;;;;23.50;14.37;;;12.60;83.30;;;;;;4981955;28;20847;-42
2022/04/30 04:22:55;;;;;;;21.83;15.43;;;12.60;83.30;;;;;;4980331;28;20464;-43
2022/04/30 04:28:07;;;;;;;20.33;14.40;;;12.60;83.40;;;;;;4981806;28;20478;-43
2022/04/30 04:30:35;;;;;;;20.80;15.63;;;12.60;83.60;;;;;;4982939;28;21023;-43
2022/04/30 04:33:02;;;;;;;22.33;15.40;;;12.60;83.60;;;;;;4981663;28;21138;-43
2022/04/30 04:35:29;;;;;;;20.53;15.27;;;12.70;83.90;;;;;;4978005;28;21009;-43
2022/04/30 04:37:56;;;;;;;17.33;14.50;;;12.60;84.00;;;;;;4964254;28;20492;-43
2022/04/30 04:40:23;;;;;;;25.07;15.87;;;12.70;84.40;;;;;;4982048;28;20514;-43
2022/04/30 04:42:50;;;;;;;21.70;15.50;;;12.70;84.20;;;;;;4981321;28;20460;-43
2022/04/30 04:45:17;;;;;;;19.97;15.80;;;12.70;84.20;;;;;;4975682;28;20491;-43
2022/04/30 04:47:49;;;;;;;24.77;15.43;;;12.70;84.20;;;;;;4964822;28;20463;-43
2022/04/30 04:50:17;;;;;;;22.37;16.17;;;12.60;84.30;;;;;;4979469;28;20468;-43
2022/04/30 04:52:44;;;;;;;23.73;15.63;;;12.70;84.60;;;;;;4980778;28;20851;-43
2022/04/30 04:55:11;;;;;;;19.83;15.20;;;12.70;84.20;;;;;;4980588;28;20463;-43
2022/04/30 04:57:38;;;;;;;21.43;14.80;;;12.70;84.20;;;;;;4981554;28;21092;-42
2022/04/30 05:00:06;;;;;;;23.40;14.77;;;12.60;84.10;;;;;;4967037;28;20460;-42
2022/04/30 05:02:33;;;;;;;21.03;15.23;;;12.60;84.10;;;;;;4980501;28;20484;-43
2022/04/30 05:05:00;;;;;;;19.00;14.43;;;12.60;84.10;;;;;;4984763;28;20544;-43
2022/04/30 05:07:27;;;;;;;24.90;14.10;;;12.70;84.00;;;;;;4983344;28;20467;-43
2022/04/30 05:09:54;;;;;;;21.03;14.57;;;12.70;83.90;;;;;;4983013;28;20464;-43
2022/04/30 05:12:20;;;;;;;19.57;13.70;;;12.70;83.20;;;;;;4982474;28;20984;-42
2022/04/30 05:14:48;;;;;;;17.20;13.03;;;12.70;83.00;;;;;;4987581;28;20488;-42
2022/04/30 05:17:15;;;;;;;17.33;14.60;;;12.70;83.00;;;;;;4971484;28;20467;-42
2022/04/30 05:19:42;;;;;;;17.23;13.97;;;12.70;82.70;;;;;;4986186;28;20457;-42
2022/04/30 05:22:09;;;;;;;18.00;12.50;;;12.70;82.60;;;;;;4965583;28;20457;-42
2022/04/30 05:24:36;;;;;;;17.90;13.07;;;12.70;82.60;;;;;;4967734;28;20831;-42
2022/04/30 05:27:04;;;;;;;17.20;13.70;;;12.70;82.70;;;;;;4963274;28;20468;-43
2022/04/30 05:29:32;;;;;;;18.30;14.30;;;12.70;82.80;;;;;;4972743;28;20463;-43
2022/04/30 05:31:59;;;;;;;18.67;12.83;;;12.60;83.00;;;;;;4981429;28;20492;-42
2022/04/30 05:34:27;;;;;;;16.27;12.70;;;12.70;83.10;;;;;;4983117;28;20611;-42
2022/04/30 05:36:54;;;;;;;16.13;12.27;;;12.70;83.00;;;;;;4984085;28;20460;-43
2022/04/30 05:39:20;;;;;;;19.20;12.87;;;12.70;82.80;;;;;;4981920;28;20476;-42
2022/04/30 05:41:47;;;;;;;17.10;12.40;;;12.70;82.90;;;;;;4965328;28;20910;-42
2022/04/30 05:44:14;;;;;;;17.30;12.53;;;12.60;83.00;;;;;;4985199;28;20553;-43
2022/04/30 05:46:41;;;;;;;16.13;12.30;;;12.70;83.40;;;;;;4984567;28;21311;-43
2022/04/30 05:49:07;;;;;;;14.90;13.03;;;12.70;83.20;;;;;;4984377;28;20474;-43
2022/04/30 05:51:34;;;;;;;17.57;13.17;;;12.60;82.90;;;;;;4970977;28;21067;-43
2022/04/30 05:54:01;;;;;;;19.70;13.00;;;12.60;83.00;;;;;;4968442;28;20491;-43
2022/04/30 05:56:28;;;;;;;18.80;13.50;;;12.60;83.10;;;;;;4982914;28;20464;-42
2022/04/30 05:58:55;;;;;;;15.90;11.90;;;12.60;82.90;;;;;;4984008;28;20464;-43
2022/04/30 06:01:21;;;;;;;18.40;13.00;;;12.70;82.80;;;;;;4961497;28;20482;-42
2022/04/30 06:03:48;;;;;;;18.07;12.70;;;12.60;83.00;;;;;;4983168;28;20464;-43
2022/04/30 06:06:15;;;;;;;17.27;13.00;;;12.60;83.00;;;;;;4982225;28;20555;-43
2022/04/30 06:08:42;;;;;;;14.10;10.57;;;12.60;82.90;;;;;;4983950;28;20777;-44
2022/04/30 06:11:08;;;;;;;18.17;13.13;;;12.60;83.00;;;;;;4958544;28;20890;-43
2022/04/30 06:13:35;;;;;;;16.97;14.00;;;12.60;83.10;;;;;;4983369;28;20880;-43
2022/04/30 06:16:02;;;;;;;17.57;12.70;;;12.60;83.30;;;;;;4983636;28;20495;-43
2022/04/30 06:18:29;;;;;;;17.13;11.90;;;12.60;83.40;;;;;;4982925;28;20459;-43
2022/04/30 06:20:56;;;;;;;12.77;10.57;;;12.60;83.40;;;;;;4970134;28;20476;-43
2022/04/30 06:23:22;;;;;;;15.10;11.77;;;12.60;83.10;;;;;;4982162;28;20469;-43
2022/04/30 06:25:49;;;;;;;14.73;11.83;;;12.60;83.10;;;;;;4983821;28;21012;-43
2022/04/30 06:28:16;;;;;;;18.40;12.90;;;12.60;82.70;;;;;;4983893;28;20471;-42
2022/04/30 06:30:43;;;;;;;15.23;12.90;;;12.50;82.90;;;;;;4963278;28;20479;-43
2022/04/30 06:33:10;;;;;;;14.00;12.10;;;12.50;83.20;;;;;;4986361;28;20973;-43
2022/04/30 06:35:37;;;;;;;17.00;12.07;;;12.60;83.10;;;;;;4984515;28;20555;-43
2022/04/30 06:38:06;;;;;;;15.13;11.03;;;12.50;82.80;;;;;;4986014;28;20467;-43
2022/04/30 06:40:33;;;;;;;13.77;11.20;;;12.50;81.80;;;;;;4983430;28;20472;-43
2022/04/30 06:43:00;;;;;;;15.30;11.70;;;12.50;81.90;;;;;;4968970;28;20467;-42
2022/04/30 06:45:26;;;;;;;12.57;10.27;;;12.50;81.90;;;;;;4982605;28;20463;-42
2022/04/30 06:47:53;;;;;;;13.73;11.53;;;12.50;82.10;;;;;;4984855;28;20468;-43
2022/04/30 06:50:20;;;;;;;14.93;11.17;;;12.50;82.30;;;;;;4984849;28;20486;-42
2022/04/30 06:58:18;;;;;;;13.30;10.90;;;12.50;82.50;;;;;;4985645;28;20472;-43
2022/04/30 07:03:27;;;;;;;12.30;9.70;;;12.50;81.00;;;;;;4980463;28;20468;-43
2022/04/30 07:06:03;;;;;;;14.73;10.30;;;12.50;80.80;;;;;;4979685;28;20464;-43
2022/04/30 07:08:34;;;;;;;13.50;10.90;;;12.40;80.90;;;;;;4965292;28;20463;-43
2022/04/30 07:11:02;;;;;;;13.17;10.30;;;12.30;81.30;;;;;;4980801;28;20552;-43
2022/04/30 07:13:31;;;;;;;12.00;9.33;;;12.30;80.80;;;;;;4984054;28;20474;-43
2022/04/30 07:15:58;;;;;;;12.50;9.87;;;12.20;81.10;;;;;;4968746;28;20468;-43
2022/04/30 07:18:26;;;;;;;13.40;9.77;;;12.20;81.90;;;;;;4982062;28;21417;-43
2022/04/30 07:20:53;;;;;;;12.17;10.37;;;12.10;82.00;;;;;;4981241;28;20472;-42
2022/04/30 07:23:20;;;;;;;14.00;10.80;;;12.10;82.20;;;;;;4981011;28;20809;-42
2022/04/30 07:25:48;;;;;;;12.87;9.40;;;12.10;82.50;;;;;;4981193;28;20924;-42
2022/04/30 07:28:15;;;;;;;15.17;10.40;;;12.10;82.40;;;;;;4965768;28;20460;-42
2022/04/30 07:30:42;;;;;;;12.80;9.90;;;12.20;81.90;;;;;;4974394;28;20583;-43
2022/04/30 07:33:09;;;;;;;14.37;10.30;;;12.20;81.90;;;;;;4981755;28;20495;-42
2022/04/30 07:35:35;;;;;;;12.47;10.40;;;12.20;82.10;;;;;;4980644;28;20497;-43
2022/04/30 07:38:02;;;;;;;13.60;10.40;;;12.20;82.00;;;;;;4975658;28;21065;-42
2022/04/30 07:40:29;;;;;;;18.00;10.53;;;12.20;82.40;;;;;;4966435;28;20962;-42
2022/04/30 07:42:57;;;;;;;15.53;10.43;;;12.20;82.40;;;;;;4974249;28;20465;-42
2022/04/30 07:45:23;;;;;;;17.20;11.33;;;12.30;81.90;;;;;;4976788;28;20857;-43
2022/04/30 07:47:51;;;;;;;13.17;10.73;;;12.30;81.90;;;;;;4983664;28;20472;-42
2022/04/30 07:50:18;;;;;;;65.20;14.87;;;12.30;81.80;;;;;;4977443;28;20479;-43
2022/04/30 07:52:45;;;;;;;13.97;9.83;;;12.30;82.00;;;;;;4984387;28;20977;-43
2022/04/30 07:55:12;;;;;;;12.67;10.40;;;12.30;82.20;;;;;;4967204;28;20492;-43
2022/04/30 07:57:39;;;;;;;13.00;10.60;;;12.40;82.50;;;;;;4981178;28;20469;-43
2022/04/30 08:00:07;;;;;;;12.60;10.40;;;12.40;82.40;;;;;;4961851;28;20472;-43
2022/04/30 08:02:34;;;;;;;13.40;10.37;;;12.50;81.90;;;;;;4964298;28;20563;-43
2022/04/30 08:05:01;;;;;;;12.97;10.53;;;12.50;81.90;;;;;;4978100;28;20978;-43
2022/04/30 08:07:28;;;;;;;13.90;9.50;;;12.60;81.80;;;;;;4980898;28;20918;-43
2022/04/30 08:09:55;;;;;;;10.50;9.33;;;12.60;81.70;;;;;;4980910;28;20461;-44
2022/04/30 08:12:22;;;;;;;11.57;9.30;;;12.60;81.70;;;;;;4976728;28;20905;-43
2022/04/30 08:14:50;;;;;;;10.33;8.77;;;12.70;81.70;;;;;;4981186;28;20507;-43
2022/04/30 08:17:17;;;;;;;9.50;7.83;;;12.70;81.80;;;;;;4978458;28;20472;-43
2022/04/30 08:19:44;;;;;;;11.20;9.00;;;12.70;81.50;;;;;;4978121;28;20468;-43
2022/04/30 08:22:10;;;;;;;12.13;9.43;;;12.70;81.70;;;;;;4977806;28;20454;-43
2022/04/30 08:24:41;;;;;;;11.60;9.93;;;12.70;82.00;;;;;;4978679;28;20556;-44
2022/04/30 08:27:08;;;;;;;11.40;8.23;;;12.80;82.10;;;;;;4979722;28;20503;-42
2022/04/30 08:29:35;;;;;;;10.13;8.20;;;12.80;82.00;;;;;;4979689;28;20473;-43
2022/04/30 08:32:02;;;;;;;10.03;7.90;;;12.90;81.10;;;;;;4980892;28;20476;-43
2022/04/30 08:34:30;;;;;;;10.83;8.47;;;12.90;81.30;;;;;;4982606;28;20496;-43
2022/04/30 08:36:56;;;;;;;11.70;9.13;;;12.90;81.60;;;;;;4977592;28;20463;-43
2022/04/30 08:39:23;;;;;;;8.37;7.47;;;12.90;81.90;;;;;;4960252;28;20479;-42
2022/04/30 08:41:50;;;;;;;11.00;7.53;;;13.00;82.00;;;;;;4960165;28;20490;-43
2022/04/30 08:44:18;;;;;;;8.53;7.40;;;13.00;81.90;;;;;;4977093;28;20914;-42
2022/04/30 08:46:45;;;;;;;10.53;7.87;;;13.00;81.90;;;;;;4961681;28;20463;-42
2022/04/30 08:49:12;;;;;;;7.87;7.07;;;13.10;81.40;;;;;;4978113;28;20460;-43
2022/04/30 08:51:39;;;;;;;10.83;8.07;;;13.10;81.30;;;;;;4979704;28;20543;-42
2022/04/30 08:54:06;;;;;;;8.97;8.03;;;13.20;81.10;;;;;;4977037;28;20488;-43
2022/04/30 08:56:36;;;;;;;9.00;7.67;;;13.10;81.20;;;;;;4974565;28;20469;-43
2022/04/30 08:59:08;;;;;;;9.40;7.80;;;13.20;81.40;;;;;;4961822;28;20469;-43
2022/04/30 09:01:53;;;;;;;9.63;8.10;;;13.20;81.00;;;;;;4977205;28;21092;-43
2022/04/30 09:04:20;;;;;;;10.03;8.20;;;13.20;80.80;;;;;;4962399;28;20467;-42
2022/04/30 09:06:52;;;;;;;8.60;7.63;;;13.00;80.90;;;;;;4977532;28;20503;-43
2022/04/30 09:09:24;;;;;;;8.13;7.33;;;13.00;80.60;;;;;;4977156;28;20468;-43
2022/04/30 09:11:53;;;;;;;8.27;7.30;;;12.90;80.90;;;;;;4975882;28;20500;-43
2022/04/30 09:14:24;;;;;;;9.43;8.40;;;12.90;81.10;;;;;;4981963;28;20492;-43
2022/04/30 09:17:07;;;;;;;8.53;7.30;;;12.90;81.70;;;;;;4976372;28;20465;-43
2022/04/30 09:19:49;;;;;;;12.47;8.07;;;12.90;81.70;;;;;;4982152;28;20478;-43
2022/04/30 09:22:26;;;;;;;10.07;6.33;;;13.00;81.40;;;;;;4979438;28;20470;-43
2022/04/30 09:24:52;;;;;;;11.37;7.90;;;12.90;80.80;;;;;;4977627;28;20455;-42
2022/04/30 09:27:46;;;;;;;9.87;8.87;;;12.90;80.50;;;;;;4976807;28;20457;-43
2022/04/30 09:30:17;;;;;;;10.57;8.17;;;12.90;81.50;;;;;;4977517;28;20471;-43
2022/04/30 09:32:45;;;;;;;10.33;8.07;;;12.80;81.50;;;;;;4978914;28;20476;-43
2022/04/30 09:38:06;;;;;;;9.17;7.40;;;12.80;81.00;;;;;;4979730;28;20464;-43
2022/04/30 09:40:33;;;;;;;9.80;8.00;;;12.80;81.30;;;;;;4973102;28;20469;-43
2022/04/30 09:43:01;;;;;;;10.57;7.73;;;12.80;81.40;;;;;;4975020;28;20833;-43
2022/04/30 09:45:32;;;;;;;12.03;8.70;;;12.80;81.50;;;;;;4976800;28;20468;-43
2022/04/30 09:53:56;;;;;;;10.07;8.73;;;12.70;81.60;;;;;;4977835;28;20470;-43
2022/04/30 09:53:57;;;;;;;12.97;9.63;;;12.90;82.30;;;;;;4983589;28;20478;-43
2022/04/30 09:56:27;;;;;;;13.87;9.70;;;12.90;82.20;;;;;;4981814;28;20837;-43
2022/04/30 09:58:55;;;;;;;12.03;9.00;;;12.90;81.30;;;;;;4960342;28;20985;-43
2022/04/30 10:01:22;;;;;;;14.07;8.37;;;12.90;81.10;;;;;;4986007;28;20542;-43
2022/04/30 10:03:52;;;;;;;11.20;9.33;;;12.90;81.10;;;;;;4984332;28;20495;-43
2022/04/30 10:06:19;;;;;;;9.77;8.33;;;12.90;81.10;;;;;;4947313;28;20468;-42
2022/04/30 10:08:46;;;;;;;9.27;8.13;;;12.90;80.10;;;;;;4982965;28;20482;-42
2022/04/30 10:11:29;;;;;;;14.90;9.83;;;12.90;80.50;;;;;;4982002;28;20984;-43
2022/04/30 10:14:20;;;;;;;9.90;8.67;;;12.80;80.70;;;;;;4982029;28;20476;-43
2022/04/30 10:17:10;;;;;;;13.33;9.00;;;12.90;81.50;;;;;;4986730;28;20468;-43
2022/04/30 10:19:34;;;;;;;12.00;9.63;;;12.90;81.30;;;;;;4986883;28;21159;-43
2022/04/30 10:22:14;;;;;;;9.63;8.33;;;12.90;81.50;;;;;;4965111;28;20468;-43
2022/04/30 10:24:47;;;;;;;10.03;8.53;;;12.90;80.80;;;;;;4979393;28;20849;-43
2022/04/30 10:27:16;;;;;;;11.00;8.87;;;13.00;81.10;;;;;;4981808;28;20460;-43
2022/04/30 10:29:53;;;;;;;12.73;8.60;;;13.00;80.70;;;;;;4981361;28;20483;-42
2022/04/30 10:32:31;;;;;;;13.73;8.90;;;13.00;80.80;;;;;;4959131;28;20512;-43
2022/04/30 10:34:59;;;;;;;12.83;8.77;;;13.00;81.00;;;;;;4982554;28;20495;-43
2022/04/30 10:37:28;;;;;;;10.60;9.30;;;13.00;81.50;;;;;;4974503;28;20472;-42
2022/04/30 10:40:11;;;;;;;10.60;9.47;;;13.00;80.90;;;;;;4970227;28;20821;-43
2022/04/30 10:42:42;;;;;;;9.20;8.17;;;12.90;80.90;;;;;;4980927;28;20476;-43
2022/04/30 10:45:17;;;;;;;10.87;8.33;;;12.90;81.40;;;;;;4982751;28;20469;-43
2022/04/30 10:47:54;;;;;;;13.20;9.47;;;12.80;80.60;;;;;;4977887;28;20469;-43
2022/04/30 10:50:22;;;;;;;13.30;8.90;;;12.80;80.90;;;;;;4978267;28;20460;-43
2022/04/30 10:52:50;;;;;;;9.30;8.30;;;12.80;81.10;;;;;;4981888;28;20468;-43
2022/04/30 10:55:19;;;;;;;12.90;9.57;;;12.80;81.40;;;;;;4966221;28;20496;-43
2022/04/30 10:57:47;;;;;;;12.30;9.20;;;12.80;80.50;;;;;;4978611;28;20471;-43
2022/04/30 11:00:14;;;;;;;14.00;9.70;;;12.70;80.90;;;;;;4984247;28;20476;-43
2022/04/30 11:02:48;;;;;;;11.97;9.17;;;12.70;81.40;;;;;;4976789;28;20488;-43
2022/04/30 11:05:22;;;;;;;9.50;8.50;;;12.80;81.90;;;;;;4982834;28;20560;-42
2022/04/30 11:07:50;;;;;;;14.03;9.63;;;12.80;81.30;;;;;;4982510;28;20848;-42
2022/04/30 11:10:18;;;;;;;14.53;10.63;;;12.70;80.80;;;;;;4980383;28;20468;-43
2022/04/30 11:12:44;;;;;;;11.57;9.37;;;12.70;81.30;;;;;;4976820;28;21039;-43
2022/04/30 11:15:14;;;;;;;15.00;10.43;;;12.60;81.20;;;;;;4980460;28;20575;-43
2022/04/30 11:17:48;;;;;;;11.47;9.10;;;12.60;81.20;;;;;;4961889;28;20465;-43
2022/04/30 11:20:22;;;;;;;13.53;10.40;;;12.50;81.40;;;;;;4980251;28;20862;-42
2022/04/30 11:23:00;;;;;;;12.27;9.47;;;12.60;81.50;;;;;;4976497;28;20468;-44
2022/04/30 11:25:36;;;;;;;14.20;9.83;;;12.60;81.30;;;;;;4978847;28;20855;-43
2022/04/30 11:28:07;;;;;;;16.20;10.20;;;12.50;81.40;;;;;;4979530;28;20503;-43
2022/04/30 11:30:39;;;;;;;15.60;10.50;;;12.50;81.70;;;;;;4965635;28;20825;-43
2022/04/30 11:33:06;;;;;;;14.10;10.27;;;12.50;81.70;;;;;;4981597;28;20475;-44
2022/04/30 11:35:34;;;;;;;13.50;10.43;;;12.50;82.00;;;;;;4980366;28;20858;-43
2022/04/30 11:38:02;;;;;;;17.27;12.57;;;12.50;81.70;;;;;;4963818;28;20976;-43
2022/04/30 11:40:28;;;;;;;17.50;12.53;;;12.50;81.90;;;;;;4982721;28;20867;-42
2022/04/30 11:43:00;;;;;;;17.53;11.20;;;12.50;82.20;;;;;;4982124;28;20466;-42
2022/04/30 11:45:31;;;;;;;15.70;11.20;;;12.60;81.60;;;;;;4984874;28;20464;-43
2022/04/30 11:47:59;;;;;;;18.37;11.53;;;12.60;81.00;;;;;;4984074;28;20495;-43
2022/04/30 11:50:27;;;;;;;15.07;11.17;;;12.60;81.20;;;;;;4984258;28;20468;-43
2022/04/30 11:52:54;;;;;;;14.50;11.57;;;12.60;80.90;;;;;;4981698;28;20559;-43
2022/04/30 11:55:21;;;;;;;16.77;12.27;;;12.60;80.80;;;;;;4978916;28;20550;-42
2022/04/30 11:57:49;;;;;;;15.33;12.13;;;12.60;82.20;;;;;;4981075;28;20469;-42
2022/04/30 12:00:18;;;;;;;18.60;13.43;;;12.60;81.20;;;;;;4979196;28;20490;-42
2022/04/30 12:02:49;;;;;;;17.03;13.47;;;12.70;81.10;;;;;;4981585;28;20469;-43
2022/04/30 12:05:19;;;;;;;16.90;13.03;;;12.60;81.00;;;;;;4980771;28;20479;-43
2022/04/30 12:07:46;;;;;;;16.90;13.07;;;12.60;81.10;;;;;;4976737;28;21058;-43
2022/04/30 12:10:24;;;;;;;21.77;13.90;;;12.60;81.00;;;;;;4976764;28;20468;-43
2022/04/30 12:12:52;;;;;;;18.87;13.90;;;12.70;81.10;;;;;;4966218;28;20514;-43
2022/04/30 12:15:20;;;;;;;20.23;13.77;;;12.70;80.80;;;;;;4982648;28;20492;-43
2022/04/30 12:24:40;;;;;;;19.40;14.27;;;12.80;79.70;;;;;;4977773;28;20470;-42
2022/04/30 12:26:13;;;;;;;17.50;13.57;;;12.80;79.30;;;;;;4978822;28;20464;-43
2022/04/30 12:28:48;;;;;;;21.17;14.90;;;12.80;79.70;;;;;;4981443;28;20464;-43
2022/04/30 12:31:15;;;;;;;18.70;14.03;;;12.80;79.70;;;;;;4980552;28;20492;-43
2022/04/30 12:33:50;;;;;;;17.93;13.73;;;12.80;79.60;;;;;;4978623;28;20548;-43
2022/04/30 12:36:18;;;;;;;19.53;13.20;;;12.80;79.80;;;;;;4980603;28;20562;-43
2022/04/30 12:38:54;;;;;;;18.20;14.47;;;12.90;79.90;;;;;;4979147;28;20461;-43
2022/04/30 12:41:22;;;;;;;19.23;13.90;;;12.90;79.40;;;;;;4977545;28;20479;-43
2022/04/30 12:43:51;;;;;;;15.90;13.07;;;12.90;79.40;;;;;;4977411;28;21237;-43
2022/04/30 12:46:23;;;;;;;17.90;13.17;;;12.90;80.00;;;;;;4979226;28;20461;-43
2022/04/30 12:48:50;;;;;;;15.00;12.70;;;12.90;79.40;;;;;;4980711;28;20501;-43
2022/04/30 12:51:19;;;;;;;21.53;14.10;;;12.90;79.10;;;;;;4960980;28;20821;-43
2022/04/30 12:53:46;;;;;;;24.50;14.20;;;12.90;79.20;;;;;;4977564;28;20465;-44
2022/04/30 12:56:13;;;;;;;14.70;11.33;;;12.90;78.00;;;;;;4975931;28;21975;-44
2022/04/30 12:58:39;;;;;;;13.87;12.40;;;12.90;77.90;;;;;;4956787;28;20726;-44
2022/04/30 13:01:06;;;;;;;17.60;11.77;;;12.90;78.40;;;;;;4965177;28;20962;-44
2022/04/30 13:03:34;;;;;;;16.50;11.80;;;12.90;78.80;;;;;;4980884;28;20809;-44
2022/04/30 13:06:02;;;;;;;19.07;12.67;;;12.80;78.80;;;;;;4978747;28;20562;-44
2022/04/30 13:13:31;;;;;;;16.83;12.47;;;12.90;78.80;;;;;;4977475;28;20567;-44
2022/04/30 13:14:01;;;;;;;14.40;11.20;;;12.80;78.40;;;;;;4977158;28;20635;-45
2022/04/30 13:16:28;;;;;;;17.97;11.40;;;12.70;78.00;;;;;;4979702;28;20580;-44
2022/04/30 13:18:56;;;;;;;16.87;13.43;;;12.80;77.70;;;;;;4982115;28;20447;-44
2022/04/30 13:21:23;;;;;;;16.03;11.87;;;12.80;77.60;;;;;;4979746;28;20477;-44
2022/04/30 13:23:50;;;;;;;14.80;11.40;;;12.80;76.00;;;;;;4979843;28;20474;-44